createdAt,value
2022-09-12T00:00:57.310Z,14.59
2022-09-12T00:01:57.348Z,14.56
2022-09-12T00:02:57.382Z,14.56
2022-09-12T00:03:57.623Z,14.57
2022-09-12T00:04:57.149Z,14.57
2022-09-12T00:05:57.220Z,14.56
2022-09-12T00:06:57.109Z,14.57
2022-09-12T00:07:57.214Z,14.56
2022-09-12T00:08:57.211Z,14.54
2022-09-12T00:09:57.263Z,14.57
2022-09-12T00:10:57.131Z,14.56
2022-09-12T00:11:57.170Z,14.56
2022-09-12T00:12:57.242Z,14.56
2022-09-12T00:13:57.293Z,14.56
2022-09-12T00:14:57.244Z,14.56
2022-09-12T00:15:57.117Z,14.56
2022-09-12T00:16:57.111Z,14.53
2022-09-12T00:17:57.026Z,14.54
2022-09-12T00:18:57.174Z,14.52
2022-09-12T00:19:57.056Z,14.53
2022-09-12T00:20:56.944Z,14.52
2022-09-12T00:21:56.981Z,14.53
2022-09-12T00:22:57.143Z,14.53
2022-09-12T00:23:57.377Z,14.53
2022-09-12T00:24:57.103Z,14.53
2022-09-12T00:25:57.022Z,14.53
2022-09-12T00:26:57.214Z,14.53
2022-09-12T00:27:56.823Z,14.52
2022-09-12T00:28:57.247Z,14.52
2022-09-12T00:29:56.954Z,14.49
2022-09-12T00:30:56.919Z,14.49
2022-09-12T00:31:56.979Z,14.48
2022-09-12T00:32:56.879Z,14.48
2022-09-12T00:33:56.955Z,14.48
2022-09-12T00:34:56.772Z,14.46
2022-09-12T00:35:56.729Z,14.46
2022-09-12T00:36:56.730Z,14.46
2022-09-12T00:37:56.787Z,14.46
2022-09-12T00:38:56.852Z,14.45
2022-09-12T00:39:57.056Z,14.44
2022-09-12T00:40:56.931Z,14.44
2022-09-12T00:41:56.867Z,14.44
2022-09-12T00:42:56.934Z,14.42
2022-09-12T00:43:56.807Z,14.42
2022-09-12T00:44:57.592Z,14.41
2022-09-12T00:45:56.704Z,14.41
2022-09-12T00:46:56.684Z,14.39
2022-09-12T00:47:56.908Z,14.38
2022-09-12T00:48:56.775Z,14.38
2022-09-12T00:49:56.617Z,14.39
2022-09-12T00:50:56.659Z,14.38
2022-09-12T00:51:56.577Z,14.38
2022-09-12T00:52:56.906Z,14.36
2022-09-12T00:53:56.735Z,14.35
2022-09-12T00:54:57.084Z,14.34
2022-09-12T00:55:56.579Z,14.31
2022-09-12T00:56:56.494Z,14.30
2022-09-12T00:57:56.694Z,14.30
2022-09-12T00:58:56.540Z,14.29
2022-09-12T00:59:56.498Z,14.29
2022-09-12T01:00:56.962Z,14.27
2022-09-12T01:01:56.606Z,14.26
2022-09-12T01:02:56.482Z,14.26
2022-09-12T01:03:56.479Z,14.24
2022-09-12T01:04:56.767Z,14.24
2022-09-12T01:05:56.268Z,14.23
2022-09-12T01:06:56.439Z,14.23
2022-09-12T01:07:56.318Z,14.21
2022-09-12T01:08:56.451Z,14.20
2022-09-12T01:09:56.593Z,14.21
2022-09-12T01:10:56.481Z,14.20
2022-09-12T01:11:56.408Z,14.20
2022-09-12T01:12:56.429Z,14.20
2022-09-12T01:13:56.321Z,14.17
2022-09-12T01:14:56.252Z,14.17
2022-09-12T01:15:56.371Z,14.17
2022-09-12T01:16:56.179Z,14.16
2022-09-12T01:17:56.254Z,14.13
2022-09-12T01:18:56.260Z,14.13
2022-09-12T01:19:57.393Z,14.12
2022-09-12T01:20:56.464Z,14.11
2022-09-12T01:21:56.230Z,14.11
2022-09-12T01:22:56.234Z,14.11
2022-09-12T01:23:56.966Z,14.09
2022-09-12T01:24:56.365Z,14.08
2022-09-12T01:25:56.223Z,14.05
2022-09-12T01:26:56.371Z,14.04
2022-09-12T01:27:56.909Z,14.04
2022-09-12T01:28:56.074Z,14.02
2022-09-12T01:29:56.189Z,14.02
2022-09-12T01:31:07.155Z,14.01
2022-09-12T01:31:58.082Z,14.01
2022-09-12T01:32:56.002Z,13.99
2022-09-12T01:33:56.427Z,13.98
2022-09-12T01:34:56.323Z,13.96
2022-09-12T01:35:56.124Z,13.96
2022-09-12T01:36:56.063Z,13.93
2022-09-12T01:37:55.930Z,13.93
2022-09-12T01:38:55.865Z,13.91
2022-09-12T01:39:56.132Z,13.93
2022-09-12T01:40:56.200Z,13.93
2022-09-12T01:41:56.072Z,13.91
2022-09-12T01:42:55.842Z,13.91
2022-09-12T01:43:55.814Z,13.90
2022-09-12T01:44:55.916Z,13.88
2022-09-12T01:45:55.832Z,13.90
2022-09-12T01:46:55.947Z,13.88
2022-09-12T01:47:55.911Z,13.87
2022-09-12T01:48:55.711Z,13.88
2022-09-12T01:49:55.758Z,13.88
2022-09-12T01:50:55.733Z,13.87
2022-09-12T01:51:55.760Z,13.84
2022-09-12T01:52:55.692Z,13.84
2022-09-12T01:53:55.682Z,13.83
2022-09-12T01:54:55.781Z,13.81
2022-09-12T01:55:55.910Z,13.81
2022-09-12T01:56:55.670Z,13.81
2022-09-12T01:57:55.692Z,13.80
2022-09-12T01:58:55.603Z,13.79
2022-09-12T01:59:55.744Z,13.79
2022-09-12T02:00:55.687Z,13.76
2022-09-12T02:01:55.742Z,13.73
2022-09-12T02:02:55.561Z,13.71
2022-09-12T02:03:55.911Z,13.69
2022-09-12T02:04:56.127Z,13.69
2022-09-12T02:05:56.535Z,13.68
2022-09-12T02:06:57.570Z,13.66
2022-09-12T02:07:56.654Z,13.65
2022-09-12T02:08:56.436Z,13.62
2022-09-12T02:09:55.547Z,13.62
2022-09-12T02:10:57.452Z,13.62
2022-09-12T02:11:56.367Z,13.62
2022-09-12T02:12:55.384Z,13.61
2022-09-12T02:13:55.480Z,13.59
2022-09-12T02:14:56.975Z,13.61
2022-09-12T02:15:56.571Z,13.57
2022-09-12T02:16:56.227Z,13.57
2022-09-12T02:17:55.883Z,13.57
2022-09-12T02:18:55.480Z,13.54
2022-09-12T02:19:55.675Z,13.53
2022-09-12T02:20:55.354Z,13.50
2022-09-12T02:21:56.924Z,13.51
2022-09-12T02:22:57.242Z,13.50
2022-09-12T02:23:55.724Z,13.50
2022-09-12T02:24:55.761Z,13.48
2022-09-12T02:25:55.458Z,13.50
2022-09-12T02:26:55.869Z,13.48
2022-09-12T02:27:55.252Z,13.47
2022-09-12T02:28:55.307Z,13.47
2022-09-12T02:29:55.259Z,13.47
2022-09-12T02:30:55.585Z,13.46
2022-09-12T02:31:55.478Z,13.46
2022-09-12T02:32:55.295Z,13.44
2022-09-12T02:33:55.959Z,13.44
2022-09-12T02:34:56.003Z,13.44
2022-09-12T02:35:56.485Z,13.46
2022-09-12T02:36:55.104Z,13.46
2022-09-12T02:37:55.168Z,13.44
2022-09-12T02:38:55.128Z,13.44
2022-09-12T02:39:56.304Z,13.43
2022-09-12T02:40:55.881Z,13.41
2022-09-12T02:41:55.199Z,13.39
2022-09-12T02:42:55.037Z,13.39
2022-09-12T02:43:55.203Z,13.39
2022-09-12T02:44:55.066Z,13.38
2022-09-12T02:45:55.244Z,13.36
2022-09-12T02:46:55.199Z,13.32
2022-09-12T02:47:55.405Z,13.31
2022-09-12T02:48:56.601Z,13.32
2022-09-12T02:49:55.115Z,13.31
2022-09-12T02:50:57.193Z,13.29
2022-09-12T02:51:54.906Z,13.32
2022-09-12T02:52:54.989Z,13.31
2022-09-12T02:53:55.040Z,13.32
2022-09-12T02:54:56.178Z,13.31
2022-09-12T02:55:55.744Z,13.32
2022-09-12T02:56:56.248Z,13.32
2022-09-12T02:57:54.995Z,13.32
2022-09-12T02:58:54.872Z,13.35
2022-09-12T02:59:54.934Z,13.31
2022-09-12T03:00:56.165Z,13.31
2022-09-12T03:01:56.314Z,13.29
2022-09-12T03:02:54.895Z,13.29
2022-09-12T03:03:55.777Z,13.28
2022-09-12T03:04:56.160Z,13.27
2022-09-12T03:05:55.257Z,13.25
2022-09-12T03:06:55.343Z,13.25
2022-09-12T03:07:56.617Z,13.25
2022-09-12T03:08:55.059Z,13.24
2022-09-12T03:09:54.727Z,13.24
2022-09-12T03:10:54.947Z,13.25
2022-09-12T03:11:57.104Z,13.24
2022-09-12T03:12:55.552Z,13.22
2022-09-12T03:13:54.831Z,13.19
2022-09-12T03:14:54.926Z,13.17
2022-09-12T03:15:54.630Z,13.16
2022-09-12T03:16:54.882Z,13.16
2022-09-12T03:17:54.883Z,13.17
2022-09-12T03:18:54.585Z,13.16
2022-09-12T03:19:54.775Z,13.16
2022-09-12T03:20:54.752Z,13.14
2022-09-12T03:21:54.591Z,13.16
2022-09-12T03:22:54.713Z,13.16
2022-09-12T03:23:55.026Z,13.14
2022-09-12T03:24:54.738Z,13.13
2022-09-12T03:25:54.612Z,13.13
2022-09-12T03:26:54.692Z,13.13
2022-09-12T03:27:54.616Z,13.12
2022-09-12T03:28:54.788Z,13.12
2022-09-12T03:29:54.669Z,13.10
2022-09-12T03:30:54.645Z,13.10
2022-09-12T03:31:54.346Z,13.09
2022-09-12T03:32:54.547Z,13.07
2022-09-12T03:33:54.537Z,13.07
2022-09-12T03:34:54.437Z,13.07
2022-09-12T03:35:54.669Z,13.09
2022-09-12T03:36:54.410Z,13.06
2022-09-12T03:37:54.504Z,13.04
2022-09-12T03:38:54.799Z,13.04
2022-09-12T03:39:54.830Z,13.01
2022-09-12T03:40:55.099Z,13.01
2022-09-12T03:41:54.222Z,13.01
2022-09-12T03:42:54.415Z,12.99
2022-09-12T03:43:54.796Z,12.99
2022-09-12T03:44:54.272Z,12.99
2022-09-12T03:45:54.960Z,12.98
2022-09-12T03:46:54.696Z,12.98
2022-09-12T03:47:54.203Z,12.95
2022-09-12T03:48:54.323Z,12.95
2022-09-12T03:49:54.263Z,12.95
2022-09-12T03:50:54.469Z,12.95
2022-09-12T03:51:54.321Z,12.95
2022-09-12T03:52:54.250Z,12.94
2022-09-12T03:53:54.272Z,12.91
2022-09-12T03:54:54.244Z,12.91
2022-09-12T03:55:54.248Z,12.87
2022-09-12T03:56:54.127Z,12.85
2022-09-12T03:57:54.282Z,12.87
2022-09-12T03:58:54.431Z,12.85
2022-09-12T03:59:54.338Z,12.85
2022-09-12T04:00:54.047Z,12.84
2022-09-12T04:01:54.367Z,12.84
2022-09-12T04:02:54.056Z,12.85
2022-09-12T04:03:54.086Z,12.85
2022-09-12T04:04:54.065Z,12.85
2022-09-12T04:05:54.021Z,12.84
2022-09-12T04:06:53.928Z,12.81
2022-09-12T04:07:53.995Z,12.80
2022-09-12T04:08:54.121Z,12.81
2022-09-12T04:09:53.999Z,12.80
2022-09-12T04:10:54.146Z,12.80
2022-09-12T04:11:53.976Z,12.79
2022-09-12T04:12:54.006Z,12.79
2022-09-12T04:13:53.978Z,12.74
2022-09-12T04:14:54.111Z,12.70
2022-09-12T04:15:54.003Z,12.70
2022-09-12T04:16:54.095Z,12.69
2022-09-12T04:17:54.243Z,12.70
2022-09-12T04:18:53.974Z,12.70
2022-09-12T04:19:54.040Z,12.71
2022-09-12T04:20:54.088Z,12.71
2022-09-12T04:21:53.710Z,12.69
2022-09-12T04:22:53.940Z,12.70
2022-09-12T04:23:53.792Z,12.70
2022-09-12T04:24:54.205Z,12.67
2022-09-12T04:25:53.996Z,12.66
2022-09-12T04:26:53.676Z,12.66
2022-09-12T04:27:53.836Z,12.63
2022-09-12T04:28:53.821Z,12.62
2022-09-12T04:29:53.642Z,12.62
2022-09-12T04:30:53.734Z,12.62
2022-09-12T04:31:53.761Z,12.59
2022-09-12T04:32:53.586Z,12.61
2022-09-12T04:33:53.997Z,12.61
2022-09-12T04:34:53.816Z,12.59
2022-09-12T04:35:53.698Z,12.59
2022-09-12T04:36:53.793Z,12.59
2022-09-12T04:37:53.571Z,12.61
2022-09-12T04:38:53.797Z,12.56
2022-09-12T04:39:53.631Z,12.54
2022-09-12T04:40:53.770Z,12.56
2022-09-12T04:41:53.554Z,12.51
2022-09-12T04:42:53.544Z,12.46
2022-09-12T04:43:53.505Z,12.46
2022-09-12T04:44:53.460Z,12.44
2022-09-12T04:45:53.414Z,12.41
2022-09-12T04:46:53.566Z,12.37
2022-09-12T04:47:53.473Z,12.37
2022-09-12T04:48:56.829Z,12.37
2022-09-12T04:49:53.579Z,12.36
2022-09-12T04:50:53.431Z,12.36
2022-09-12T04:51:53.468Z,12.36
2022-09-12T04:52:53.317Z,12.36
2022-09-12T04:53:53.476Z,12.36
2022-09-12T04:54:53.347Z,12.31
2022-09-12T04:55:53.270Z,12.30
2022-09-12T04:56:53.329Z,12.29
2022-09-12T04:57:53.289Z,12.30
2022-09-12T04:58:53.363Z,12.30
2022-09-12T04:59:53.210Z,12.31
2022-09-12T05:00:53.192Z,12.33
2022-09-12T05:01:53.361Z,12.33
2022-09-12T05:02:53.172Z,12.33
2022-09-12T05:03:53.224Z,12.34
2022-09-12T05:04:53.123Z,12.33
2022-09-12T05:05:56.464Z,12.34
2022-09-12T05:06:53.264Z,12.36
2022-09-12T05:07:53.300Z,12.34
2022-09-12T05:08:53.163Z,12.37
2022-09-12T05:09:53.193Z,12.36
2022-09-12T05:10:53.108Z,12.36
2022-09-12T05:12:04.102Z,12.34
2022-09-12T05:12:54.135Z,12.33
2022-09-12T05:13:53.266Z,12.31
2022-09-12T05:14:53.087Z,12.31
2022-09-12T05:15:53.098Z,12.30
2022-09-12T05:16:53.201Z,12.31
2022-09-12T05:17:52.984Z,12.34
2022-09-12T05:18:53.544Z,12.33
2022-09-12T05:19:52.979Z,12.33
2022-09-12T05:20:53.316Z,12.33
2022-09-12T05:21:53.557Z,12.34
2022-09-12T05:22:52.879Z,12.34
2022-09-12T05:23:53.089Z,12.34
2022-09-12T05:24:53.141Z,12.34
2022-09-12T05:25:52.935Z,12.34
2022-09-12T05:26:53.146Z,12.33
2022-09-12T05:27:53.023Z,12.34
2022-09-12T05:28:52.948Z,12.33
2022-09-12T05:29:52.936Z,12.31
2022-09-12T05:30:53.137Z,12.33
2022-09-12T05:31:53.443Z,12.33
2022-09-12T05:32:53.188Z,12.31
2022-09-12T05:33:53.171Z,12.30
2022-09-12T05:34:52.867Z,12.29
2022-09-12T05:35:52.862Z,12.29
2022-09-12T05:36:53.165Z,12.29
2022-09-12T05:37:52.821Z,12.29
2022-09-12T05:38:52.733Z,12.30
2022-09-12T05:39:52.782Z,12.30
2022-09-12T05:40:52.794Z,12.29
2022-09-12T05:41:52.904Z,12.29
2022-09-12T05:42:52.991Z,12.33
2022-09-12T05:43:52.725Z,12.31
2022-09-12T05:44:52.829Z,12.33
2022-09-12T05:45:52.843Z,12.30
2022-09-12T05:46:52.837Z,12.31
2022-09-12T05:47:52.873Z,12.31
2022-09-12T05:48:56.082Z,12.31
2022-09-12T05:49:52.797Z,12.31
2022-09-12T05:50:52.587Z,12.30
2022-09-12T05:51:52.707Z,12.30
2022-09-12T05:52:52.496Z,12.33
2022-09-12T05:53:52.514Z,12.33
2022-09-12T05:54:52.627Z,12.36
2022-09-12T05:55:52.589Z,12.36
2022-09-12T05:56:52.556Z,12.36
2022-09-12T05:57:52.832Z,12.37
2022-09-12T05:58:52.784Z,12.36
2022-09-12T05:59:52.586Z,12.37
2022-09-12T06:00:52.541Z,12.38
2022-09-12T06:01:52.445Z,12.40
2022-09-12T06:02:52.496Z,12.41
2022-09-12T06:03:52.509Z,12.41
2022-09-12T06:04:52.734Z,12.43
2022-09-12T06:05:52.461Z,12.44
2022-09-12T06:06:52.599Z,12.48
2022-09-12T06:07:52.478Z,12.51
2022-09-12T06:08:52.560Z,12.52
2022-09-12T06:09:52.409Z,12.54
2022-09-12T06:10:52.410Z,12.58
2022-09-12T06:11:52.359Z,12.61
2022-09-12T06:12:52.293Z,12.62
2022-09-12T06:13:52.372Z,12.63
2022-09-12T06:14:52.608Z,12.66
2022-09-12T06:15:52.526Z,12.67
2022-09-12T06:16:52.345Z,12.71
2022-09-12T06:17:52.234Z,12.73
2022-09-12T06:18:52.602Z,12.76
2022-09-12T06:19:52.407Z,12.77
2022-09-12T06:20:52.272Z,12.79
2022-09-12T06:21:52.135Z,12.81
2022-09-12T06:22:52.183Z,12.85
2022-09-12T06:23:52.146Z,12.87
2022-09-12T06:24:57.312Z,12.88
2022-09-12T06:25:53.133Z,12.91
2022-09-12T06:26:52.667Z,12.94
2022-09-12T06:27:52.219Z,12.95
2022-09-12T06:28:52.183Z,12.96
2022-09-12T06:29:52.096Z,12.99
2022-09-12T06:30:52.209Z,13.04
2022-09-12T06:31:52.137Z,13.07
2022-09-12T06:32:52.054Z,13.09
2022-09-12T06:33:52.098Z,13.09
2022-09-12T06:34:52.123Z,13.10
2022-09-12T06:35:52.113Z,13.13
2022-09-12T06:36:52.030Z,13.13
2022-09-12T06:37:52.126Z,13.17
2022-09-12T06:38:52.271Z,13.19
2022-09-12T06:39:52.157Z,13.22
2022-09-12T06:40:52.086Z,13.22
2022-09-12T06:41:52.056Z,13.25
2022-09-12T06:42:51.988Z,13.28
2022-09-12T06:43:52.171Z,13.31
2022-09-12T06:44:52.154Z,13.32
2022-09-12T06:45:51.959Z,13.36
2022-09-12T06:46:52.184Z,13.39
2022-09-12T06:47:52.153Z,13.41
2022-09-12T06:48:52.265Z,13.44
2022-09-12T06:49:51.902Z,13.47
2022-09-12T06:50:51.954Z,13.50
2022-09-12T06:51:51.905Z,13.53
2022-09-12T06:52:51.950Z,13.55
2022-09-12T06:53:52.082Z,13.59
2022-09-12T06:54:51.785Z,13.63
2022-09-12T06:55:51.821Z,13.66
2022-09-12T06:56:51.877Z,13.69
2022-09-12T06:57:51.845Z,13.73
2022-09-12T06:58:51.872Z,13.79
2022-09-12T06:59:53.785Z,13.81
2022-09-12T07:00:54.012Z,13.84
2022-09-12T07:01:53.137Z,13.90
2022-09-12T07:02:52.113Z,13.91
2022-09-12T07:03:51.701Z,13.96
2022-09-12T07:04:51.633Z,13.99
2022-09-12T07:05:52.148Z,14.02
2022-09-12T07:06:52.010Z,14.06
2022-09-12T07:07:52.353Z,14.06
2022-09-12T07:08:51.705Z,14.11
2022-09-12T07:09:51.935Z,14.13
2022-09-12T07:10:51.897Z,14.17
2022-09-12T07:11:51.550Z,14.19
2022-09-12T07:12:51.694Z,14.21
2022-09-12T07:13:51.730Z,14.26
2022-09-12T07:14:51.556Z,14.27
2022-09-12T07:15:51.590Z,14.30
2022-09-12T07:16:51.599Z,14.34
2022-09-12T07:17:51.500Z,14.35
2022-09-12T07:18:51.515Z,14.41
2022-09-12T07:19:51.493Z,14.39
2022-09-12T07:20:51.610Z,14.44
2022-09-12T07:21:54.238Z,14.44
2022-09-12T07:22:52.410Z,14.48
2022-09-12T07:23:51.519Z,14.49
2022-09-12T07:24:51.431Z,14.48
2022-09-12T07:25:51.502Z,14.48
2022-09-12T07:26:51.579Z,14.52
2022-09-12T07:27:51.573Z,14.53
2022-09-12T07:28:51.404Z,14.56
2022-09-12T07:29:54.662Z,14.56
2022-09-12T07:30:52.443Z,14.60
2022-09-12T07:31:51.650Z,14.63
2022-09-12T07:32:51.684Z,14.64
2022-09-12T07:33:54.621Z,14.66
2022-09-12T07:34:52.504Z,14.69
2022-09-12T07:35:51.398Z,14.71
2022-09-12T07:36:51.478Z,14.72
2022-09-12T07:37:51.346Z,14.74
2022-09-12T07:38:54.511Z,14.74
2022-09-12T07:39:52.510Z,14.78
2022-09-12T07:40:51.497Z,14.80
2022-09-12T07:41:51.540Z,14.83
2022-09-12T07:42:51.458Z,14.86
2022-09-12T07:43:51.187Z,14.90
2022-09-12T07:44:51.688Z,14.93
2022-09-12T07:45:51.266Z,14.95
2022-09-12T07:46:51.310Z,14.98
2022-09-12T07:47:51.499Z,15.01
2022-09-12T07:48:51.395Z,15.03
2022-09-12T07:49:51.250Z,15.03
2022-09-12T07:50:51.096Z,15.05
2022-09-12T07:51:51.116Z,15.07
2022-09-12T07:52:51.228Z,15.11
2022-09-12T07:53:51.090Z,15.12
2022-09-12T07:54:51.164Z,15.12
2022-09-12T07:55:51.444Z,15.13
2022-09-12T07:56:51.059Z,15.16
2022-09-12T07:57:51.574Z,15.18
2022-09-12T07:58:51.218Z,15.20
2022-09-12T07:59:53.342Z,15.22
2022-09-12T08:00:51.495Z,15.23
2022-09-12T08:01:51.049Z,15.27
2022-09-12T08:02:51.297Z,15.28
2022-09-12T08:03:51.476Z,15.28
2022-09-12T08:04:51.085Z,15.28
2022-09-12T08:05:51.063Z,15.33
2022-09-12T08:06:51.005Z,15.34
2022-09-12T08:07:54.624Z,15.37
2022-09-12T08:08:52.826Z,15.40
2022-09-12T08:09:53.902Z,15.41
2022-09-12T08:10:51.155Z,15.46
2022-09-12T08:11:51.092Z,15.49
2022-09-12T08:12:52.153Z,15.51
2022-09-12T08:13:56.393Z,15.53
2022-09-12T08:14:55.493Z,15.56
2022-09-12T08:15:54.536Z,15.60
2022-09-12T08:16:51.765Z,15.62
2022-09-12T08:17:51.683Z,15.66
2022-09-12T08:18:51.119Z,15.68
2022-09-12T08:19:52.917Z,15.71
2022-09-12T08:20:54.990Z,15.73
2022-09-12T08:23:08.990Z,15.80
2022-09-12T08:26:26.444Z,15.88
2022-09-12T08:27:15.826Z,15.89
2022-09-12T08:28:28.632Z,15.91
2022-09-12T08:29:41.392Z,15.93
2022-09-12T08:30:15.251Z,15.96
2022-09-12T08:32:39.866Z,16.01
2022-09-12T08:35:01.569Z,16.07
2022-09-12T08:37:39.519Z,16.13
2022-09-12T08:38:35.840Z,16.14
2022-09-12T08:39:35.724Z,16.17
2022-09-12T08:40:35.671Z,16.17
2022-09-12T08:41:35.949Z,16.18
2022-09-12T08:42:36.938Z,16.23
2022-09-12T08:43:36.108Z,16.26
2022-09-12T08:44:41.870Z,16.26
2022-09-12T08:45:40.214Z,16.29
2022-09-12T08:46:37.861Z,16.33
2022-09-12T08:47:36.956Z,16.37
2022-09-12T08:48:36.633Z,16.40
2022-09-12T08:49:35.582Z,16.44
2022-09-12T08:50:37.949Z,16.48
2022-09-12T08:51:38.767Z,16.52
2022-09-12T08:52:39.968Z,16.54
2022-09-12T08:53:38.377Z,16.60
2022-09-12T08:54:35.673Z,16.65
2022-09-12T08:55:38.430Z,16.66
2022-09-12T08:56:38.345Z,16.70
2022-09-12T08:57:39.704Z,16.75
2022-09-12T08:58:36.645Z,16.77
2022-09-12T08:59:37.507Z,16.78
2022-09-12T09:00:43.037Z,16.82
2022-09-12T09:01:36.467Z,16.85
2022-09-12T09:02:35.760Z,16.85
2022-09-12T09:03:36.334Z,16.88
2022-09-12T09:04:34.978Z,16.90
2022-09-12T09:05:35.193Z,16.95
2022-09-12T09:06:36.273Z,16.98
2022-09-12T09:07:37.169Z,16.99
2022-09-12T09:08:35.600Z,17.02
2022-09-12T09:09:36.077Z,17.05
2022-09-12T09:10:35.246Z,17.09
2022-09-12T09:11:35.089Z,17.12
2022-09-12T09:12:37.129Z,17.17
2022-09-12T09:14:53.333Z,17.32
2022-09-12T09:15:55.274Z,17.39
2022-09-12T09:16:53.338Z,17.42
2022-09-12T09:17:52.823Z,17.47
2022-09-12T09:18:53.131Z,17.51
2022-09-12T09:19:53.175Z,17.54
2022-09-12T09:20:53.270Z,17.63
2022-09-12T09:21:53.112Z,17.70
2022-09-12T09:22:53.538Z,17.76
2022-09-12T09:23:53.155Z,17.80
2022-09-12T09:24:53.266Z,17.84
2022-09-12T09:25:52.999Z,17.86
2022-09-12T09:26:55.574Z,17.87
2022-09-12T09:28:04.495Z,17.87
2022-09-12T09:28:53.738Z,17.91
2022-09-12T09:31:27.064Z,17.89
2022-09-12T09:33:42.133Z,17.91
2022-09-12T09:34:42.147Z,17.91
2022-09-12T09:38:12.978Z,17.91
2022-09-12T09:39:01.917Z,17.91
2022-09-12T09:40:01.241Z,17.98
2022-09-12T09:41:00.920Z,18.02
2022-09-12T09:42:01.188Z,18.10
2022-09-12T09:43:00.921Z,18.16
2022-09-12T09:44:01.385Z,18.25
2022-09-12T09:45:01.073Z,18.32
2022-09-12T09:46:01.298Z,18.36
2022-09-12T09:47:01.139Z,18.44
2022-09-12T09:48:01.038Z,18.47
2022-09-12T09:49:02.178Z,18.49
2022-09-12T09:50:01.662Z,18.51
2022-09-12T09:51:00.935Z,18.60
2022-09-12T09:52:01.842Z,18.71
2022-09-12T09:53:00.986Z,18.84
2022-09-12T09:54:01.319Z,19.01
2022-09-12T09:55:00.765Z,19.17
2022-09-12T09:56:00.775Z,19.30
2022-09-12T09:57:01.136Z,19.38
2022-09-12T09:58:01.098Z,19.43
2022-09-12T09:59:00.971Z,19.49
2022-09-12T10:00:00.944Z,19.57
2022-09-12T10:01:00.818Z,19.65
2022-09-12T10:02:00.956Z,19.64
2022-09-12T10:03:01.356Z,19.61
2022-09-12T10:04:00.765Z,19.61
2022-09-12T10:05:01.497Z,19.64
2022-09-12T10:06:02.167Z,19.64
2022-09-12T10:07:01.388Z,19.68
2022-09-12T10:08:00.766Z,19.67
2022-09-12T10:09:00.974Z,19.65
2022-09-12T10:10:02.005Z,19.67
2022-09-12T10:11:01.243Z,19.64
2022-09-12T10:12:00.428Z,19.61
2022-09-12T10:13:00.948Z,19.58
2022-09-12T10:14:00.976Z,19.60
2022-09-12T10:15:01.508Z,19.61
2022-09-12T10:16:00.969Z,19.60
2022-09-12T10:17:00.510Z,19.60
2022-09-12T10:18:01.708Z,19.62
2022-09-12T10:19:00.688Z,19.68
2022-09-12T10:20:17.870Z,19.72
2022-09-12T10:21:01.320Z,19.76
2022-09-12T10:22:00.972Z,19.80
2022-09-12T10:23:00.426Z,19.83
2022-09-12T10:24:00.423Z,19.86
2022-09-12T10:25:00.523Z,19.92
2022-09-12T10:26:00.674Z,19.98
2022-09-12T10:27:00.567Z,20.01
2022-09-12T10:28:00.432Z,20.08
2022-09-12T10:29:00.501Z,20.15
2022-09-12T10:30:00.398Z,20.20
2022-09-12T10:31:00.346Z,20.26
2022-09-12T10:32:00.385Z,20.33
2022-09-12T10:33:00.510Z,20.38
2022-09-12T10:34:00.289Z,20.41
2022-09-12T10:35:00.794Z,20.48
2022-09-12T10:36:01.421Z,20.54
2022-09-12T10:37:00.423Z,20.61
2022-09-12T10:38:00.220Z,20.66
2022-09-12T10:39:00.640Z,20.68
2022-09-12T10:40:00.460Z,20.71
2022-09-12T10:41:01.551Z,20.71
2022-09-12T10:42:00.743Z,20.72
2022-09-12T10:43:00.123Z,20.64
2022-09-12T10:44:00.662Z,20.63
2022-09-12T10:45:00.218Z,20.63
2022-09-12T10:46:00.282Z,20.63
2022-09-12T10:47:00.253Z,20.66
2022-09-12T10:48:06.776Z,20.66
2022-09-12T10:49:01.622Z,20.69
2022-09-12T10:50:00.204Z,20.69
2022-09-12T10:51:00.288Z,20.72
2022-09-12T10:52:00.150Z,20.79
2022-09-12T10:53:00.361Z,20.85
2022-09-12T10:54:03.252Z,20.90
2022-09-12T10:55:00.050Z,20.97
2022-09-12T10:56:00.306Z,21.01
2022-09-12T10:57:00.246Z,21.01
2022-09-12T10:58:01.503Z,21.05
2022-09-12T10:59:01.797Z,21.06
2022-09-12T11:00:00.492Z,21.03
2022-09-12T11:01:00.562Z,21.00
2022-09-12T11:01:59.919Z,20.97
2022-09-12T11:03:00.408Z,21.00
2022-09-12T11:04:00.635Z,20.98
2022-09-12T11:05:00.010Z,20.97
2022-09-12T11:05:59.923Z,20.97
2022-09-12T11:07:01.719Z,20.96
2022-09-12T11:08:00.532Z,20.97
2022-09-12T11:09:05.800Z,21.01
2022-09-12T11:10:01.163Z,21.05
2022-09-12T11:11:01.571Z,21.08
2022-09-12T11:11:59.820Z,21.13
2022-09-12T11:13:00.756Z,21.21
2022-09-12T11:14:00.460Z,21.28
2022-09-12T11:14:59.810Z,21.36
2022-09-12T11:16:00.463Z,21.42
2022-09-12T11:17:00.063Z,21.42
2022-09-12T11:17:59.715Z,21.42
2022-09-12T11:18:59.692Z,21.42
2022-09-12T11:19:59.751Z,21.43
2022-09-12T11:20:59.962Z,21.40
2022-09-12T11:21:59.594Z,21.38
2022-09-12T11:22:59.569Z,21.37
2022-09-12T11:23:59.609Z,21.36
2022-09-12T11:24:59.689Z,21.36
2022-09-12T11:25:59.615Z,21.36
2022-09-12T11:26:59.593Z,21.31
2022-09-12T11:28:01.150Z,21.26
2022-09-12T11:28:59.916Z,21.27
2022-09-12T11:29:59.759Z,21.27
2022-09-12T11:30:59.786Z,21.27
2022-09-12T11:31:59.619Z,21.30
2022-09-12T11:33:00.899Z,21.34
2022-09-12T11:33:59.545Z,21.37
2022-09-12T11:35:01.039Z,21.42
2022-09-12T11:35:59.579Z,21.46
2022-09-12T11:36:59.542Z,21.56
2022-09-12T11:37:59.528Z,21.66
2022-09-12T11:39:01.182Z,21.70
2022-09-12T11:40:01.517Z,21.70
2022-09-12T11:40:59.409Z,21.64
2022-09-12T11:41:59.484Z,21.63
2022-09-12T11:42:59.788Z,21.61
2022-09-12T11:43:59.863Z,21.59
2022-09-12T11:44:59.722Z,21.56
2022-09-12T11:45:59.441Z,21.53
2022-09-12T11:46:59.472Z,21.55
2022-09-12T11:47:59.756Z,21.63
2022-09-12T11:48:59.264Z,21.68
2022-09-12T11:50:00.644Z,21.73
2022-09-12T11:50:59.522Z,21.77
2022-09-12T11:51:59.163Z,21.77
2022-09-12T11:52:59.413Z,21.77
2022-09-12T11:53:59.477Z,21.82
2022-09-12T11:54:59.200Z,21.81
2022-09-12T11:55:59.314Z,21.83
2022-09-12T11:56:59.286Z,21.89
2022-09-12T11:58:00.294Z,21.91
2022-09-12T11:58:59.183Z,21.96
2022-09-12T12:00:03.217Z,22.02
2022-09-12T12:01:00.941Z,22.06
2022-09-12T12:02:01.150Z,22.09
2022-09-12T12:02:59.475Z,22.09
2022-09-12T12:03:59.269Z,22.12
2022-09-12T12:04:59.678Z,22.12
2022-09-12T12:05:59.160Z,22.17
2022-09-12T12:07:14.577Z,22.20
2022-09-12T12:08:00.253Z,22.23
2022-09-12T12:08:59.389Z,22.24
2022-09-12T12:09:59.757Z,22.26
2022-09-12T12:10:59.072Z,22.27
2022-09-12T12:11:59.056Z,22.27
2022-09-12T12:12:59.201Z,22.27
2022-09-12T12:13:58.927Z,22.35
2022-09-12T12:14:59.841Z,22.35
2022-09-12T12:15:58.987Z,22.35
2022-09-12T12:16:59.261Z,22.35
2022-09-12T12:18:00.141Z,22.36
2022-09-12T12:18:59.230Z,22.35
2022-09-12T12:20:04.286Z,22.36
2022-09-12T12:20:59.961Z,22.30
2022-09-12T12:21:59.186Z,22.24
2022-09-12T12:22:59.135Z,22.19
2022-09-12T12:23:59.392Z,22.17
2022-09-12T12:24:59.343Z,22.06
2022-09-12T12:26:13.430Z,21.99
2022-09-12T12:27:00.593Z,22.01
2022-09-12T12:27:58.965Z,22.04
2022-09-12T12:28:59.173Z,22.06
2022-09-12T12:30:06.658Z,22.11
2022-09-12T12:31:26.895Z,22.19
2022-09-12T12:31:59.243Z,22.20
2022-09-12T12:32:59.969Z,22.23
2022-09-12T12:33:59.989Z,22.23
2022-09-12T12:35:00.913Z,22.30
2022-09-12T12:35:58.669Z,22.42
2022-09-12T12:36:59.273Z,22.49
2022-09-12T12:37:59.707Z,22.44
2022-09-12T12:38:58.756Z,22.44
2022-09-12T12:39:59.149Z,22.45
2022-09-12T12:40:58.907Z,22.49
2022-09-12T12:42:00.292Z,22.51
2022-09-12T12:42:58.650Z,22.54
2022-09-12T12:43:58.850Z,22.52
2022-09-12T12:44:58.580Z,22.59
2022-09-12T12:45:58.835Z,22.60
2022-09-12T12:46:58.518Z,22.52
2022-09-12T12:47:58.473Z,22.48
2022-09-12T12:48:58.509Z,22.48
2022-09-12T12:49:58.887Z,22.49
2022-09-12T12:50:59.474Z,22.56
2022-09-12T12:51:59.209Z,22.60
2022-09-12T12:52:58.700Z,22.63
2022-09-12T12:53:58.375Z,22.66
2022-09-12T12:54:58.409Z,22.64
2022-09-12T12:55:58.413Z,22.67
2022-09-12T12:56:58.833Z,22.70
2022-09-12T12:57:59.344Z,22.74
2022-09-12T12:58:59.778Z,22.70
2022-09-12T12:59:58.494Z,22.61
2022-09-12T13:00:59.193Z,22.51
2022-09-12T13:01:58.468Z,22.44
2022-09-12T13:03:00.010Z,22.35
2022-09-12T13:03:58.326Z,22.29
2022-09-12T13:04:58.803Z,22.27
2022-09-12T13:05:58.539Z,22.29
2022-09-12T13:06:58.438Z,22.29